Time;durP1;ratioP1;P1;durP2;ratioP2;P2;SDS_P1;SDS_P2;PMS_P1;PMS_P2;Temp;Humidity;BMP_temperature;BMP_pressure;BME280_temperature;BME280_humidity;BME280_pressure;Samples;Min_cycle;Max_cycle;Signal;HPM_P1;HPM_P2
2022/05/18 00:03:07;;;;;;;3.40;0.80;;;;;;;6.17;52.57;100802.02;215421;1276;143000;-62
2022/05/18 00:08:11;;;;;;;3.00;1.30;;;;;;;6.01;52.38;100805.36;214771;1276;141124;-63
2022/05/18 00:13:15;;;;;;;2.00;1.10;;;;;;;5.86;52.92;100811.84;214127;1274;243097;-60
2022/05/18 00:18:18;;;;;;;3.50;1.40;;;;;;;5.71;53.26;100814.80;213560;1274;141054;-61
2022/05/18 00:23:20;;;;;;;1.40;1.30;;;;;;;5.54;53.55;100814.91;214085;1274;142709;-63
2022/05/18 00:28:23;;;;;;;3.00;0.90;;;;;;;5.36;53.84;100821.30;214423;1274;140955;-60
2022/05/18 00:33:26;;;;;;;1.10;1.10;;;;;;;5.21;54.05;100825.16;214339;1274;139540;-63
2022/05/18 00:38:29;;;;;;;2.80;1.00;;;;;;;5.10;54.71;100832.95;213991;1274;140031;-59
2022/05/18 00:43:32;;;;;;;0.90;0.90;;;;;;;4.97;54.94;100842.70;213694;1273;139836;-62
2022/05/18 00:48:35;;;;;;;1.40;1.20;;;;;;;4.80;55.02;100847.44;214031;1274;139933;-60
2022/05/18 00:54:04;;;;;;;0.90;0.90;;;;;;;4.56;55.40;100859.93;213378;1274;140203;-61
2022/05/18 00:59:18;;;;;;;3.70;1.60;;;;;;;4.36;55.95;100867.73;214685;1274;139943;-64
2022/05/18 01:04:25;;;;;;;2.40;1.00;;;;;;;4.21;56.14;100872.59;214021;1274;211482;-62
2022/05/18 01:09:46;;;;;;;1.20;1.10;;;;;;;3.99;56.50;100881.64;214113;1274;140816;-61
2022/05/18 01:14:52;;;;;;;1.60;1.40;;;;;;;3.73;56.81;100891.44;214304;1274;140736;-64
2022/05/18 01:19:59;;;;;;;1.70;1.30;;;;;;;3.53;57.34;100901.61;213629;1274;245561;-62
2022/05/18 01:25:08;;;;;;;1.50;1.40;;;;;;;3.34;57.60;100906.43;214577;1275;140620;-63
2022/05/18 01:30:12;;;;;;;1.70;1.60;;;;;;;3.18;57.99;100908.27;213143;1274;141478;-63
2022/05/18 01:35:21;;;;;;;1.70;1.10;;;;;;;3.03;58.07;100904.95;215595;1274;140655;-64
2022/05/18 01:40:35;;;;;;;1.70;1.30;;;;;;;2.91;58.86;100909.46;215913;1274;140282;-63
2022/05/18 01:45:38;;;;;;;1.80;1.20;;;;;;;2.72;58.54;100911.27;214794;1274;139530;-63
2022/05/18 01:50:42;;;;;;;6.20;1.30;;;;;;;2.52;59.29;100913.27;216136;1274;139748;-62
2022/05/18 01:55:45;;;;;;;1.30;1.00;;;;;;;2.41;59.40;100906.30;215370;1274;139786;-61
2022/05/18 02:00:47;;;;;;;1.00;1.00;;;;;;;2.32;59.93;100909.80;215656;1274;139771;-63
2022/05/18 02:05:52;;;;;;;1.20;1.00;;;;;;;2.26;60.51;100914.64;215279;1274;139830;-63
2022/05/18 02:10:56;;;;;;;1.30;1.00;;;;;;;2.11;59.91;100915.45;213492;1274;139728;-63
2022/05/18 02:16:01;;;;;;;4.40;1.60;;;;;;;1.91;60.75;100922.88;215109;1274;141608;-63
2022/05/18 02:21:07;;;;;;;5.00;2.20;;;;;;;1.78;60.65;100924.64;214420;1274;139391;-63
2022/05/18 02:26:16;;;;;;;3.40;1.30;;;;;;;1.62;61.00;100924.42;214393;1274;139382;-62
2022/05/18 02:31:20;;;;;;;1.40;1.30;;;;;;;1.49;61.41;100925.89;214321;1274;140649;-63
2022/05/18 02:36:23;;;;;;;1.70;1.20;;;;;;;1.41;61.74;100929.38;214138;1274;140368;-63
2022/05/18 02:41:27;;;;;;;3.40;2.00;;;;;;;1.34;62.22;100932.42;213750;1274;140379;-63
2022/05/18 02:46:30;;;;;;;6.80;2.60;;;;;;;1.26;62.06;100930.92;213297;1274;141853;-63
2022/05/18 02:51:33;;;;;;;3.60;1.50;;;;;;;1.20;62.31;100938.16;214016;1274;141104;-63
2022/05/18 02:56:38;;;;;;;4.80;1.80;;;;;;;1.14;62.62;100939.80;213366;1274;140453;-63
2022/05/18 03:01:42;;;;;;;1.40;1.20;;;;;;;1.10;62.92;100943.80;214030;1274;140064;-63
2022/05/18 03:06:46;;;;;;;3.10;1.40;;;;;;;1.09;63.25;100948.67;214621;1274;140011;-63
2022/05/18 03:11:50;;;;;;;2.10;1.50;;;;;;;1.04;63.18;100958.77;213623;1274;140325;-63
2022/05/18 03:16:55;;;;;;;1.20;1.10;;;;;;;0.95;63.39;100961.64;213435;1272;139588;-63
2022/05/18 03:27:21;;;;;;;3.00;1.80;;;;;;;0.96;64.19;100970.34;214720;1274;139760;-65
2022/05/18 03:32:25;;;;;;;1.30;1.20;;;;;;;1.54;64.19;100980.46;215212;1274;141484;-64
2022/05/18 03:37:28;;;;;;;0.90;0.80;;;;;;;2.14;63.55;100986.85;215882;1274;140938;-64
2022/05/18 03:42:30;;;;;;;2.60;2.00;;;;;;;2.26;62.85;100989.89;216071;1274;139869;-66
2022/05/18 03:47:33;;;;;;;3.90;2.50;;;;;;;2.42;63.13;100990.59;215886;1274;139555;-67
2022/05/18 03:52:35;;;;;;;2.10;1.30;;;;;;;2.68;62.70;100992.77;214146;1274;141042;-61
2022/05/18 03:57:40;;;;;;;3.00;2.00;;;;;;;2.89;63.11;100997.84;214294;1274;140781;-64
2022/05/18 04:02:47;;;;;;;2.60;1.70;;;;;;;3.24;63.10;101001.09;214797;1274;141641;-65
2022/05/18 04:07:51;;;;;;;5.00;3.20;;;;;;;3.56;62.23;101012.26;214706;1275;140110;-63
2022/05/18 04:12:55;;;;;;;5.80;2.30;;;;;;;4.04;62.48;101015.83;213643;1275;139692;-63
2022/05/18 04:17:59;;;;;;;4.60;3.20;;;;;;;4.61;62.30;101014.95;214288;1274;139687;-66
2022/05/18 04:23:05;;;;;;;2.40;1.70;;;;;;;5.14;61.90;101017.55;213119;1274;141448;-63
2022/05/18 04:28:13;;;;;;;3.70;2.00;;;;;;;5.91;61.70;101028.60;213607;1276;139444;-64
2022/05/18 04:33:22;;;;;;;5.60;2.30;;;;;;;6.50;60.46;101033.38;213443;1274;140284;-65
2022/05/18 04:38:26;;;;;;;3.80;2.40;;;;;;;6.96;60.22;101037.17;213437;1274;141081;-64
2022/05/18 04:43:32;;;;;;;4.70;2.80;;;;;;;7.81;58.94;101042.13;213363;1275;140290;-63
2022/05/18 04:48:36;;;;;;;6.60;3.30;;;;;;;8.61;57.99;101044.84;214186;1274;140899;-64
2022/05/18 04:53:43;;;;;;;5.60;2.60;;;;;;;8.77;57.01;101053.94;214950;1274;140862;-65
2022/05/18 04:58:47;;;;;;;2.90;2.10;;;;;;;9.69;55.29;101045.27;214136;1276;139833;-64
2022/05/18 05:03:50;;;;;;;5.10;2.70;;;;;;;10.52;54.03;101049.23;214620;1275;139989;-65
2022/05/18 05:08:53;;;;;;;4.60;2.70;;;;;;;10.46;53.25;101050.15;214715;1272;140346;-65
2022/05/18 05:13:56;;;;;;;1.80;1.60;;;;;;;11.58;51.27;101056.33;215730;1273;222894;-65
2022/05/18 05:18:59;;;;;;;5.00;2.00;;;;;;;16.36;47.22;101055.64;215304;1274;140261;-64
2022/05/18 05:24:03;;;;;;;2.80;1.60;;;;;;;20.97;42.83;101061.64;214254;1274;141552;-64
2022/05/18 05:29:06;;;;;;;3.20;1.50;;;;;;;24.48;38.55;101066.16;215929;1275;139996;-64
2022/05/18 05:34:10;;;;;;;1.50;1.10;;;;;;;27.25;34.72;101070.51;215798;1274;140211;-64
2022/05/18 05:39:13;;;;;;;1.80;0.70;;;;;;;29.45;31.37;101074.91;214830;1274;140531;-64
2022/05/18 05:44:16;;;;;;;1.70;1.30;;;;;;;31.15;28.63;101076.93;215770;1274;140216;-64
2022/05/18 05:49:19;;;;;;;2.00;1.10;;;;;;;31.99;26.09;101083.71;213755;1274;140566;-64
2022/05/18 05:54:23;;;;;;;4.40;1.50;;;;;;;33.21;24.55;101097.94;213411;1274;140391;-64
2022/05/18 05:59:25;;;;;;;;;;;;;;;33.89;23.24;101104.33;215043;1274;141210;-65
2022/05/18 06:04:36;;;;;;;2.30;0.70;;;;;;;33.71;22.27;101105.67;214255;1274;127515;-64
2022/05/18 06:09:41;;;;;;;0.50;0.50;;;;;;;32.20;22.03;101102.77;213435;1274;152155;-64
2022/05/18 06:14:45;;;;;;;3.10;0.90;;;;;;;32.09;21.45;101107.67;214238;1274;140211;-64
2022/05/18 06:19:49;;;;;;;1.50;1.00;;;;;;;32.39;21.04;101117.56;213530;1274;154814;-64
2022/05/18 06:24:53;;;;;;;1.60;0.70;;;;;;;30.78;21.03;101120.62;213474;1274;141427;-64
2022/05/18 06:29:56;;;;;;;3.10;0.90;;;;;;;28.68;21.40;101124.35;213437;1276;141425;-62
2022/05/18 06:35:00;;;;;;;1.30;1.10;;;;;;;26.54;22.62;101131.98;214103;1274;140501;-63
2022/05/18 06:40:09;;;;;;;2.30;1.00;;;;;;;24.97;23.57;101138.74;213929;1274;140153;-63
2022/05/18 06:45:14;;;;;;;2.30;1.20;;;;;;;23.97;24.45;101139.75;214283;1274;223226;-63
2022/05/18 06:50:17;;;;;;;1.90;1.30;;;;;;;23.07;25.34;101142.86;214366;1274;140733;-63
2022/05/18 06:55:20;;;;;;;1.40;1.10;;;;;;;22.48;25.67;101144.42;214311;1274;141448;-63
2022/05/18 07:00:25;;;;;;;1.00;1.00;;;;;;;22.85;25.80;101144.66;213320;1274;141320;-63
2022/05/18 07:05:29;;;;;;;3.90;1.10;;;;;;;23.81;25.49;101148.79;215237;1274;140667;-63
2022/05/18 07:10:33;;;;;;;1.80;0.80;;;;;;;24.83;24.57;101149.55;214499;1274;141006;-63
2022/05/18 07:15:36;;;;;;;1.90;1.10;;;;;;;25.17;24.04;101150.79;215838;1274;141188;-64
2022/05/18 07:20:39;;;;;;;1.80;1.20;;;;;;;25.11;25.26;101158.42;216132;1275;140822;-64
2022/05/18 07:25:43;;;;;;;1.70;0.70;;;;;;;24.56;24.07;101162.54;216263;1274;140494;-63
2022/05/18 07:30:46;;;;;;;0.60;0.60;;;;;;;23.15;24.61;101159.27;215023;1274;141892;-64
2022/05/18 07:35:52;;;;;;;1.00;0.90;;;;;;;22.14;25.08;101162.64;215621;1274;140785;-64
2022/05/18 07:40:56;;;;;;;1.80;0.70;;;;;;;21.65;26.06;101162.64;215787;1274;141636;-64
2022/05/18 07:46:00;;;;;;;4.40;0.70;;;;;;;21.90;27.00;101157.44;214340;1274;142594;-63
2022/05/18 07:51:03;;;;;;;2.90;0.90;;;;;;;22.27;26.74;101159.35;214055;1274;899373;-64
2022/05/18 07:56:08;;;;;;;2.10;0.80;;;;;;;22.18;26.68;101159.88;214397;1274;141616;-64
2022/05/18 08:01:12;;;;;;;1.90;1.20;;;;;;;22.02;27.02;101156.70;213911;1274;141089;-63
2022/05/18 08:06:20;;;;;;;2.50;1.00;;;;;;;21.95;28.10;101154.11;213502;1274;141078;-64
2022/05/18 08:16:48;;;;;;;1.00;0.90;;;;;;;21.74;27.94;101154.21;213513;1274;143012;-63
2022/05/18 08:21:51;;;;;;;0.80;0.80;;;;;;;21.78;29.37;101158.55;214008;1275;139835;-64
2022/05/18 08:26:56;;;;;;;4.20;1.20;;;;;;;21.85;28.81;101158.48;213861;1274;139982;-64
2022/05/18 08:32:00;;;;;;;1.70;0.90;;;;;;;21.53;27.81;101161.47;214173;1274;150469;-64
2022/05/18 08:37:03;;;;;;;1.30;1.00;;;;;;;21.12;27.49;101159.98;214833;1274;139881;-64
2022/05/18 08:42:08;;;;;;;2.20;1.20;;;;;;;20.93;28.27;101156.20;213751;1274;139896;-64
2022/05/18 08:47:25;;;;;;;1.80;1.30;;;;;;;21.03;28.69;101156.02;214133;1274;140821;-65
2022/05/18 08:52:28;;;;;;;5.30;0.90;;;;;;;21.04;28.83;101150.64;213211;1274;140418;-65
2022/05/18 08:57:38;;;;;;;1.40;0.70;;;;;;;20.89;27.95;101145.04;214883;1274;140060;-64
2022/05/18 09:02:42;;;;;;;1.40;1.00;;;;;;;20.78;28.08;101143.99;215788;1274;140205;-65
2022/05/18 09:07:54;;;;;;;1.50;1.00;;;;;;;20.84;27.94;101141.70;214730;1274;141271;-64
2022/05/18 09:12:57;;;;;;;2.10;1.00;;;;;;;20.81;27.73;101140.30;215649;1274;140247;-64
2022/05/18 09:18:22;;;;;;;1.00;0.70;;;;;;;20.80;27.59;101138.20;216108;1274;141208;-64
2022/05/18 09:23:25;;;;;;;1.10;0.60;;;;;;;20.77;28.13;101134.73;216087;1274;140179;-65
2022/05/18 09:29:11;;;;;;;2.60;1.10;;;;;;;20.85;28.35;101131.63;215900;1274;140751;-64
2022/05/18 09:34:59;;;;;;;3.90;1.20;;;;;;;20.74;27.46;101128.75;215003;1275;139659;-64
2022/05/18 09:40:09;;;;;;;1.40;0.70;;;;;;;20.57;27.26;101121.34;215814;1274;141054;-64
2022/05/18 09:45:18;;;;;;;0.90;0.90;;;;;;;20.60;26.86;101123.46;214638;1274;140848;-65
2022/05/18 09:50:22;;;;;;;1.40;1.10;;;;;;;20.56;26.49;101120.69;213414;1274;140524;-66
2022/05/18 09:55:27;;;;;;;0.80;0.80;;;;;;;20.55;26.63;101118.80;213380;1274;141513;-66
2022/05/18 10:00:36;;;;;;;6.70;1.80;;;;;;;20.54;27.11;101116.89;214896;1274;141727;-64
2022/05/18 10:11:03;;;;;;;1.00;1.00;;;;;;;20.60;27.23;101113.61;214458;1274;141404;-65
2022/05/18 10:16:15;;;;;;;1.20;0.70;;;;;;;20.59;27.45;101112.89;213294;1275;142169;-65
2022/05/18 10:21:33;;;;;;;1.50;0.70;;;;;;;20.56;26.77;101113.48;213647;1274;142494;-66
2022/05/18 10:26:40;;;;;;;0.40;0.40;;;;;;;20.60;26.85;101109.48;213347;1274;140994;-65
2022/05/18 10:32:00;;;;;;;1.40;1.00;;;;;;;20.73;27.52;101115.59;213194;1274;140454;-66
2022/05/18 10:37:04;;;;;;;2.80;0.90;;;;;;;20.67;27.43;101106.69;213951;1274;141828;-65
2022/05/18 10:42:21;;;;;;;1.10;0.50;;;;;;;20.79;27.44;101106.42;214143;1274;140861;-65
2022/05/18 10:47:29;;;;;;;1.80;1.10;;;;;;;20.61;27.12;101103.96;213982;1274;140639;-66
2022/05/18 10:52:36;;;;;;;0.70;0.60;;;;;;;20.67;26.66;101098.28;214148;1274;141219;-64
2022/05/18 10:57:41;;;;;;;1.30;0.50;;;;;;;20.80;26.83;101093.38;215334;1274;139862;-65
2022/05/18 11:03:00;;;;;;;0.90;0.90;;;;;;;20.81;26.60;101095.16;215087;1274;140036;-66
2022/05/18 11:08:06;;;;;;;0.90;0.80;;;;;;;20.66;26.15;101096.16;216113;1274;139854;-67
2022/05/18 11:13:19;;;;;;;1.60;0.60;;;;;;;20.59;26.22;101088.68;215676;1274;139873;-66
2022/05/18 11:18:45;;;;;;;1.00;0.50;;;;;;;20.68;26.36;101085.77;216216;1274;140987;-66
2022/05/18 11:24:05;;;;;;;0.40;0.40;;;;;;;20.88;26.48;101088.05;215926;1274;140162;-62
2022/05/18 11:29:30;;;;;;;0.60;0.60;;;;;;;20.96;25.20;101078.52;216020;1274;140573;-65
2022/05/18 11:34:51;;;;;;;1.00;0.60;;;;;;;20.96;25.23;101080.42;213965;1274;139652;-64
2022/05/18 11:40:28;;;;;;;3.40;0.80;;;;;;;21.09;24.81;101071.58;214693;1274;140068;-65
2022/05/18 11:45:50;;;;;;;0.50;0.40;;;;;;;21.05;24.65;101064.77;213404;1274;167143;-65
2022/05/18 11:51:00;;;;;;;1.40;0.60;;;;;;;21.12;24.26;101062.52;213531;1274;139500;-65
2022/05/18 11:56:26;;;;;;;0.80;0.60;;;;;;;21.00;24.19;101060.42;214998;1275;141186;-64
2022/05/18 12:01:44;;;;;;;0.40;0.40;;;;;;;20.90;23.66;101054.77;214387;1276;141339;-64
2022/05/18 12:07:22;;;;;;;1.60;0.80;;;;;;;20.99;24.74;101053.48;214562;1276;140210;-64
2022/05/18 12:12:32;;;;;;;1.70;1.10;;;;;;;21.13;24.58;101046.40;213653;1276;140713;-65
2022/05/18 12:18:04;;;;;;;3.40;0.50;;;;;;;21.26;24.62;101047.73;214105;1274;140378;-65
2022/05/18 12:23:12;;;;;;;3.70;0.90;;;;;;;21.25;23.98;101046.26;213601;1274;141083;-64
2022/05/18 12:28:17;;;;;;;1.10;0.40;;;;;;;21.21;23.73;101042.63;214772;1274;142634;-64
2022/05/18 12:33:21;;;;;;;4.10;1.10;;;;;;;21.09;23.27;101042.09;213503;1274;141530;-64
2022/05/18 12:38:39;;;;;;;1.70;0.80;;;;;;;21.08;22.69;101035.04;214053;1274;140344;-66
2022/05/18 12:43:51;;;;;;;1.40;0.50;;;;;;;21.05;23.10;101027.78;214045;1274;140526;-65
2022/05/18 12:49:16;;;;;;;0.90;0.70;;;;;;;20.98;22.67;101026.21;215071;1274;140343;-65
2022/05/18 12:54:22;;;;;;;3.00;0.80;;;;;;;20.99;23.11;101021.00;215584;1274;140001;-65
2022/05/18 12:59:45;;;;;;;2.60;0.90;;;;;;;20.95;23.12;101012.48;214762;1274;141211;-66
2022/05/18 13:04:49;;;;;;;4.90;0.80;;;;;;;21.06;23.08;101016.89;215488;1274;140947;-65
2022/05/18 13:10:14;;;;;;;1.00;0.60;;;;;;;21.17;23.19;101011.11;215005;1274;140726;-65
2022/05/18 13:15:55;;;;;;;0.60;0.60;;;;;;;21.30;22.78;101003.09;214951;1274;141864;-66
2022/05/18 13:21:07;;;;;;;0.40;0.40;;;;;;;21.13;22.60;100994.42;215963;1274;143781;-67
2022/05/18 13:26:28;;;;;;;2.40;0.80;;;;;;;21.10;23.36;100993.92;215003;1274;141248;-67
2022/05/18 13:31:31;;;;;;;1.40;0.80;;;;;;;21.20;23.83;100989.42;215902;1274;140506;-66
2022/05/18 13:36:51;;;;;;;1.50;0.40;;;;;;;21.18;23.54;100990.82;215946;1274;140749;-65
2022/05/18 13:42:03;;;;;;;0.70;0.50;;;;;;;21.23;23.59;100986.23;215513;1274;140118;-65
2022/05/18 13:47:21;;;;;;;2.10;0.50;;;;;;;21.26;22.94;100980.59;213869;1274;140320;-65
2022/05/18 13:52:37;;;;;;;4.50;0.70;;;;;;;21.27;23.32;100973.76;213240;1274;141051;-66
2022/05/18 13:57:48;;;;;;;74.00;7.10;;;;;;;21.19;22.49;100967.02;215209;1274;141462;-68
2022/05/18 14:03:00;;;;;;;1.70;0.40;;;;;;;21.32;22.83;100962.35;213520;1274;141301;-64
2022/05/18 14:08:36;;;;;;;1.20;0.60;;;;;;;21.24;22.57;100954.48;214085;1274;140948;-67
2022/05/18 14:13:52;;;;;;;0.30;0.20;;;;;;;21.06;22.42;100955.45;213644;1274;141229;-64
2022/05/18 14:18:59;;;;;;;0.60;0.50;;;;;;;20.91;22.09;100951.40;213447;1275;140985;-65
2022/05/18 14:24:12;;;;;;;0.60;0.60;;;;;;;20.90;22.31;100947.61;213554;1274;142687;-64
2022/05/18 14:29:38;;;;;;;1.30;0.70;;;;;;;20.90;22.93;100948.58;213716;1275;141788;-65
2022/05/18 14:35:00;;;;;;;0.60;0.50;;;;;;;20.87;23.03;100946.03;214376;1274;140532;-65
2022/05/18 14:40:09;;;;;;;0.60;0.40;;;;;;;20.92;23.02;100942.50;213605;1275;140758;-64
2022/05/18 14:45:27;;;;;;;0.50;0.50;;;;;;;21.01;23.13;100937.40;214291;1274;141169;-64
2022/05/18 14:50:39;;;;;;;1.80;0.70;;;;;;;20.92;22.67;100937.04;213161;1274;141216;-66
2022/05/18 14:55:50;;;;;;;0.50;0.50;;;;;;;20.75;22.66;100943.84;213415;1274;140861;-64
2022/05/18 15:01:00;;;;;;;0.60;0.50;;;;;;;20.73;22.58;100943.58;214888;1274;140239;-65
2022/05/18 15:06:09;;;;;;;0.40;0.40;;;;;;;20.59;22.66;100936.96;215533;1274;141111;-64
2022/05/18 15:11:16;;;;;;;0.70;0.50;;;;;;;20.56;22.54;100935.72;215190;1274;140934;-64
2022/05/18 15:16:34;;;;;;;2.30;0.80;;;;;;;20.52;22.58;100931.33;213169;1274;140502;-64
2022/05/18 15:21:41;;;;;;;10.00;1.30;;;;;;;20.50;23.19;100929.27;215897;1274;141727;-63
2022/05/18 15:26:50;;;;;;;0.60;0.60;;;;;;;20.44;23.27;100929.94;215541;1274;140634;-62
2022/05/18 15:32:09;;;;;;;0.70;0.50;;;;;;;20.32;23.01;100926.43;215033;1274;140407;-62
2022/05/18 15:37:15;;;;;;;1.30;0.80;;;;;;;20.29;22.58;100922.52;214665;1274;141041;-61
2022/05/18 15:42:20;;;;;;;2.30;0.40;;;;;;;20.23;22.89;100920.09;213293;1274;141240;-61
2022/05/18 15:47:27;;;;;;;3.10;0.70;;;;;;;20.17;23.52;100920.36;213527;1274;141322;-61
2022/05/18 15:52:31;;;;;;;0.50;0.40;;;;;;;20.09;23.22;100920.69;213267;1274;140302;-62
2022/05/18 15:57:37;;;;;;;3.90;0.80;;;;;;;20.04;22.72;100916.88;213668;1274;140405;-63
2022/05/18 16:02:47;;;;;;;2.00;0.70;;;;;;;20.02;23.02;100920.88;214261;1274;141539;-61
2022/05/18 16:07:52;;;;;;;0.70;0.40;;;;;;;19.97;23.00;100916.27;213699;1274;139738;-62
2022/05/18 16:12:56;;;;;;;4.20;0.80;;;;;;;19.89;23.21;100913.70;213360;1274;140456;-64
2022/05/18 16:18:01;;;;;;;0.30;0.30;;;;;;;19.85;23.58;100913.71;213584;1274;141989;-63
2022/05/18 16:23:05;;;;;;;0.40;0.40;;;;;;;19.74;23.89;100914.27;214476;1274;140350;-64
2022/05/18 16:28:13;;;;;;;0.40;0.40;;;;;;;19.68;24.20;100912.25;213113;1274;141903;-62
2022/05/18 16:33:15;;;;;;;0.80;0.80;;;;;;;19.58;23.55;100904.98;213852;1274;142011;-62
2022/05/18 16:38:22;;;;;;;3.70;0.80;;;;;;;19.52;23.96;100907.34;212934;1274;140706;-62
2022/05/18 16:43:29;;;;;;;2.00;0.40;;;;;;;19.44;24.14;100906.41;213880;1274;139879;-63
2022/05/18 16:48:33;;;;;;;0.30;0.20;;;;;;;19.31;24.26;100905.45;214520;1274;141725;-64
2022/05/18 16:53:37;;;;;;;3.60;0.60;;;;;;;19.14;24.53;100901.75;212957;1275;140209;-64
2022/05/18 16:58:45;;;;;;;1.90;0.80;;;;;;;19.03;24.89;100902.71;213779;1274;150777;-65
2022/05/18 17:03:49;;;;;;;1.00;0.50;;;;;;;18.94;24.35;100906.17;214440;1274;139642;-63
2022/05/18 17:08:57;;;;;;;0.90;0.70;;;;;;;18.85;24.68;100903.27;214022;1273;141853;-62
2022/05/18 17:14:18;;;;;;;0.60;0.60;;;;;;;18.72;25.29;100908.13;214251;1274;140977;-63
2022/05/18 17:19:23;;;;;;;0.40;0.40;;;;;;;18.58;25.90;100911.39;215699;1274;140616;-63
2022/05/18 17:24:27;;;;;;;0.90;0.60;;;;;;;18.39;27.41;100911.88;215575;1274;140922;-65
2022/05/18 17:29:34;;;;;;;0.50;0.50;;;;;;;18.13;26.89;100911.38;215304;1274;140270;-62
2022/05/18 17:34:40;;;;;;;1.00;0.60;;;;;;;17.89;28.17;100911.63;215691;1274;140491;-63
2022/05/18 17:39:44;;;;;;;0.70;0.70;;;;;;;17.65;28.08;100905.05;215227;1274;140869;-62
2022/05/18 17:44:49;;;;;;;2.30;0.80;;;;;;;17.38;27.85;100902.94;214799;1274;142492;-63
2022/05/18 17:49:54;;;;;;;4.10;0.70;;;;;;;17.15;28.90;100904.86;213870;1274;140664;-63
2022/05/18 17:55:03;;;;;;;0.80;0.70;;;;;;;16.87;29.42;100902.59;214159;1274;141805;-65
2022/05/18 18:00:17;;;;;;;0.80;0.60;;;;;;;16.55;29.87;100911.18;214504;1274;163688;-63
2022/05/18 18:05:25;;;;;;;2.80;0.60;;;;;;;16.24;30.88;100911.27;213377;1274;141236;-62
2022/05/18 18:10:33;;;;;;;0.80;0.50;;;;;;;15.91;31.54;100910.33;213832;1274;141047;-64
2022/05/18 18:15:37;;;;;;;0.50;0.50;;;;;;;15.54;32.18;100911.52;213582;1274;141104;-64
2022/05/18 18:20:42;;;;;;;0.60;0.60;;;;;;;15.20;33.00;100909.48;213917;1274;141634;-63
2022/05/18 18:25:49;;;;;;;3.50;0.80;;;;;;;14.86;33.43;100912.75;214130;1274;142325;-63
2022/05/18 18:30:53;;;;;;;2.60;0.60;;;;;;;14.52;33.80;100917.31;213309;1274;141151;-64
2022/05/18 18:35:55;;;;;;;1.70;1.00;;;;;;;14.17;34.87;100923.61;213441;1274;141459;-65
2022/05/18 18:41:00;;;;;;;3.00;1.00;;;;;;;13.83;36.23;100934.52;213428;1274;141256;-64
2022/05/18 18:56:52;;;;;;;4.30;0.90;;;;;;;12.75;37.97;100943.98;214195;1274;141332;-64
2022/05/18 19:01:56;;;;;;;2.50;1.00;;;;;;;12.25;38.71;100951.66;213435;1274;141032;-62
2022/05/18 19:07:05;;;;;;;7.80;2.20;;;;;;;11.91;39.87;100948.63;214784;1274;141604;-65
2022/05/18 19:12:12;;;;;;;1.70;1.50;;;;;;;11.69;40.77;100949.11;213506;1274;141323;-65
2022/05/18 19:17:15;;;;;;;4.70;1.90;;;;;;;11.46;41.39;100943.79;216130;1274;143950;-65
2022/05/18 19:22:21;;;;;;;3.80;1.70;;;;;;;11.20;41.94;100941.70;216083;1274;141520;-65
2022/05/18 19:27:25;;;;;;;4.20;1.70;;;;;;;10.86;42.21;100947.58;216078;1274;141052;-65
2022/05/18 19:32:29;;;;;;;10.80;2.60;;;;;;;10.52;43.44;100947.92;214468;1274;141816;-65
2022/05/18 19:37:33;;;;;;;3.80;2.10;;;;;;;10.23;44.12;100948.33;214048;1274;163587;-65
2022/05/18 19:42:44;;;;;;;2.10;1.90;;;;;;;10.00;44.55;100950.11;214691;1274;142445;-62
2022/05/18 19:47:53;;;;;;;7.90;2.60;;;;;;;9.74;44.86;100950.40;214932;1274;669533;-66
2022/05/18 19:52:58;;;;;;;9.40;2.10;;;;;;;9.46;45.55;100952.95;215000;1274;139848;-65
2022/05/18 19:58:02;;;;;;;5.00;2.10;;;;;;;9.27;46.18;100952.94;213511;1274;140335;-63
2022/05/18 20:03:07;;;;;;;6.50;2.80;;;;;;;8.98;46.96;100952.84;213863;1274;140400;-65
2022/05/18 20:08:11;;;;;;;6.90;2.40;;;;;;;8.70;47.87;100948.30;213247;1276;140729;-64
2022/05/18 20:13:22;;;;;;;3.50;2.30;;;;;;;8.47;47.88;100946.77;213463;1276;143451;-64
2022/05/18 20:18:28;;;;;;;10.10;3.50;;;;;;;8.31;48.80;100946.81;214004;1274;141910;-64
2022/05/18 20:23:34;;;;;;;5.10;3.20;;;;;;;8.13;49.09;100947.92;214064;1274;142788;-63
2022/05/18 20:28:38;;;;;;;3.50;1.70;;;;;;;7.90;49.80;100950.50;213592;1274;140240;-64
2022/05/18 20:33:41;;;;;;;5.50;2.90;;;;;;;7.70;50.30;100954.31;214431;1274;139918;-64
2022/05/18 20:38:44;;;;;;;3.00;2.70;;;;;;;7.56;50.75;100950.93;214068;1274;140732;-65
2022/05/18 20:43:49;;;;;;;8.00;3.30;;;;;;;7.38;51.31;100950.45;213906;1274;140343;-64
2022/05/18 20:48:56;;;;;;;4.00;2.90;;;;;;;7.16;51.64;100947.30;213327;1274;139592;-63
2022/05/18 20:53:59;;;;;;;4.10;3.00;;;;;;;6.97;51.98;100947.77;215220;1274;139727;-67
2022/05/18 20:59:03;;;;;;;4.90;2.90;;;;;;;6.80;52.20;100943.70;215654;1274;230368;-64
2022/05/18 21:04:07;;;;;;;6.20;3.40;;;;;;;6.66;52.59;100942.89;214300;1274;140451;-63
2022/05/18 21:09:15;;;;;;;4.90;3.30;;;;;;;6.51;53.20;100944.27;215574;1274;141597;-66
2022/05/18 21:14:19;;;;;;;7.70;4.30;;;;;;;6.37;53.64;100941.55;216031;1274;140896;-64
2022/05/18 21:19:23;;;;;;;3.80;3.10;;;;;;;6.23;53.75;100936.01;216079;1274;140004;-64
2022/05/18 21:24:25;;;;;;;8.10;3.80;;;;;;;6.14;54.36;100936.41;215287;1274;141243;-64
2022/05/18 21:29:29;;;;;;;15.00;3.50;;;;;;;6.04;54.60;100937.22;214073;1274;139527;-65
2022/05/18 21:34:32;;;;;;;9.40;4.90;;;;;;;5.89;55.09;100936.55;214443;1274;139581;-64
2022/05/18 21:39:35;;;;;;;5.50;4.10;;;;;;;5.80;55.36;100937.99;214215;1274;140108;-63
2022/05/18 21:44:38;;;;;;;4.90;4.00;;;;;;;5.68;55.70;100937.23;213634;1274;139819;-63
2022/05/18 21:49:41;;;;;;;5.00;3.40;;;;;;;5.56;56.25;100937.23;214121;1274;139396;-62
2022/05/18 21:54:45;;;;;;;4.80;3.90;;;;;;;5.42;56.49;100936.67;213535;1274;139445;-63
2022/05/18 21:59:52;;;;;;;5.90;4.20;;;;;;;5.27;57.00;100935.86;213459;1274;140525;-63
2022/05/18 22:04:59;;;;;;;5.40;3.90;;;;;;;5.12;57.28;100935.23;214269;1274;140351;-62
2022/05/18 22:10:04;;;;;;;14.60;6.90;;;;;;;5.02;57.59;100933.52;213636;1274;139536;-61
2022/05/18 22:15:07;;;;;;;9.00;5.00;;;;;;;4.91;58.07;100936.02;213946;1274;141377;-63
2022/05/18 22:20:10;;;;;;;11.60;4.80;;;;;;;4.85;58.52;100932.82;214103;1276;139457;-63
2022/05/18 22:25:15;;;;;;;12.50;6.30;;;;;;;4.76;58.70;100932.56;214715;1275;141172;-64
2022/05/18 22:30:23;;;;;;;11.50;7.70;;;;;;;4.63;58.91;100930.30;213656;1274;140274;-63
2022/05/18 22:35:26;;;;;;;14.10;8.00;;;;;;;4.60;59.53;100931.25;214767;1274;140862;-66
2022/05/18 22:40:28;;;;;;;17.20;8.90;;;;;;;4.54;59.64;100929.92;215073;1274;140944;-64
2022/05/18 22:45:34;;;;;;;17.50;8.90;;;;;;;4.49;59.99;100933.63;214298;1274;140927;-63
2022/05/18 22:50:49;;;;;;;19.70;8.90;;;;;;;4.41;60.29;100935.02;215638;1274;140930;-65
2022/05/18 22:55:51;;;;;;;17.70;7.70;;;;;;;4.35;60.49;100931.73;215950;1272;140339;-65
2022/05/18 23:00:55;;;;;;;14.90;8.20;;;;;;;4.23;60.52;100922.27;216235;1274;141516;-65
2022/05/18 23:05:57;;;;;;;14.40;6.70;;;;;;;4.14;61.02;100925.43;216096;1274;141526;-66
2022/05/18 23:11:01;;;;;;;16.20;7.90;;;;;;;4.08;61.18;100924.80;214733;1274;140886;-64
2022/05/18 23:16:04;;;;;;;18.30;8.40;;;;;;;3.98;61.35;100920.52;213941;1274;140165;-64
2022/05/18 23:21:13;;;;;;;32.00;12.00;;;;;;;3.92;61.37;100919.97;215513;1274;139971;-64
2022/05/18 23:26:19;;;;;;;24.80;9.80;;;;;;;3.98;61.94;100919.40;215513;1274;141803;-63
2022/05/18 23:31:26;;;;;;;28.50;10.40;;;;;;;3.97;61.62;100919.24;214569;1274;141379;-63
2022/05/18 23:36:30;;;;;;;33.40;12.90;;;;;;;3.95;61.63;100921.43;213628;1274;141363;-63
2022/05/18 23:41:32;;;;;;;27.90;10.70;;;;;;;3.85;62.01;100920.95;214418;1274;141773;-63
2022/05/18 23:46:37;;;;;;;32.80;11.90;;;;;;;3.68;62.20;100912.16;215066;1274;141333;-62
2022/05/18 23:51:40;;;;;;;51.80;14.40;;;;;;;3.60;62.76;100905.30;214137;1274;141640;-62